createdAt,value
2023-02-28T00:00:13.166Z,100.00
2023-02-28T00:01:13.362Z,100.00
2023-02-28T00:02:13.487Z,100.00
2023-02-28T00:03:18.963Z,100.00
2023-02-28T00:04:12.877Z,100.00
2023-02-28T00:05:13.832Z,100.00
2023-02-28T00:06:13.806Z,100.00
2023-02-28T00:07:13.878Z,100.00
2023-02-28T00:08:13.857Z,100.00
2023-02-28T00:09:14.027Z,100.00
2023-02-28T00:10:13.038Z,100.00
2023-02-28T00:11:13.057Z,100.00
2023-02-28T00:12:13.352Z,100.00
2023-02-28T00:13:13.486Z,100.00
2023-02-28T00:14:13.469Z,100.00
2023-02-28T00:15:13.492Z,100.00
2023-02-28T00:16:13.447Z,100.00
2023-02-28T00:17:13.540Z,100.00
2023-02-28T00:18:13.732Z,100.00
2023-02-28T00:19:13.941Z,100.00
2023-02-28T00:20:12.970Z,100.00
2023-02-28T00:21:13.184Z,100.00
2023-02-28T00:22:13.557Z,100.00
2023-02-28T00:23:13.558Z,100.00
2023-02-28T00:24:14.072Z,100.00
2023-02-28T00:25:13.518Z,100.00
2023-02-28T00:26:13.440Z,100.00
2023-02-28T00:27:13.468Z,100.00
2023-02-28T00:28:16.222Z,100.00
2023-02-28T00:29:13.372Z,100.00
2023-02-28T00:30:13.375Z,100.00
2023-02-28T00:31:13.624Z,100.00
2023-02-28T00:32:13.534Z,100.00
2023-02-28T00:33:13.519Z,100.00
2023-02-28T00:34:14.762Z,100.00
2023-02-28T00:35:13.790Z,100.00
2023-02-28T00:36:13.719Z,100.00
2023-02-28T00:37:13.686Z,100.00
2023-02-28T00:38:13.759Z,100.00
2023-02-28T00:39:13.784Z,100.00
2023-02-28T00:40:13.985Z,100.00
2023-02-28T00:41:12.951Z,100.00
2023-02-28T00:42:12.862Z,100.00
2023-02-28T00:43:13.877Z,100.00
2023-02-28T00:44:13.825Z,100.00
2023-02-28T00:45:13.849Z,100.00
2023-02-28T00:46:13.831Z,100.00
2023-02-28T00:47:13.759Z,100.00
2023-02-28T00:48:13.108Z,100.00
2023-02-28T00:49:13.250Z,100.00
2023-02-28T00:50:13.614Z,100.00
2023-02-28T00:51:13.733Z,100.00
2023-02-28T00:52:13.644Z,100.00
2023-02-28T00:53:13.552Z,100.00
2023-02-28T00:54:13.566Z,100.00
2023-02-28T00:55:14.052Z,100.00
2023-02-28T00:56:13.143Z,100.00
2023-02-28T00:57:13.223Z,100.00
2023-02-28T00:58:13.337Z,100.00
2023-02-28T00:59:13.271Z,100.00
2023-02-28T01:00:13.202Z,100.00
2023-02-28T01:01:13.216Z,100.00
2023-02-28T01:02:13.741Z,100.00
2023-02-28T01:03:13.660Z,100.00
2023-02-28T01:04:13.698Z,100.00
2023-02-28T01:05:13.886Z,100.00
2023-02-28T01:06:12.868Z,100.00
2023-02-28T01:07:14.102Z,100.00
2023-02-28T01:08:13.038Z,100.00
2023-02-28T01:09:13.167Z,100.00
2023-02-28T01:10:13.183Z,100.00
2023-02-28T01:11:13.231Z,100.00
2023-02-28T01:12:13.401Z,100.00
2023-02-28T01:13:13.775Z,100.00
2023-02-28T01:14:13.873Z,100.00
2023-02-28T01:15:13.985Z,100.00
2023-02-28T01:16:13.058Z,100.00
2023-02-28T01:17:13.053Z,100.00
2023-02-28T01:18:13.282Z,100.00
2023-02-28T01:19:14.549Z,100.00
2023-02-28T01:20:13.768Z,100.00
2023-02-28T01:21:13.727Z,100.00
2023-02-28T01:22:13.751Z,100.00
2023-02-28T01:23:13.810Z,100.00
2023-02-28T01:24:13.719Z,100.00
2023-02-28T01:25:14.010Z,100.00
2023-02-28T01:26:13.124Z,100.00
2023-02-28T01:27:13.146Z,100.00
2023-02-28T01:28:13.447Z,100.00
2023-02-28T01:29:13.800Z,100.00
2023-02-28T01:30:13.941Z,100.00
2023-02-28T01:31:13.021Z,100.00
2023-02-28T01:32:13.056Z,100.00
2023-02-28T01:33:13.150Z,100.00
2023-02-28T01:34:13.104Z,100.00
2023-02-28T01:35:13.033Z,100.00
2023-02-28T01:36:12.904Z,100.00
2023-02-28T01:37:13.218Z,100.00
2023-02-28T01:38:22.056Z,100.00
2023-02-28T01:39:13.806Z,100.00
2023-02-28T01:40:14.053Z,100.00
2023-02-28T01:41:13.024Z,100.00
2023-02-28T01:42:13.156Z,100.00
2023-02-28T01:43:13.517Z,100.00
2023-02-28T01:44:13.355Z,100.00
2023-02-28T01:45:13.522Z,100.00
2023-02-28T01:46:13.496Z,100.00
2023-02-28T01:47:13.823Z,100.00
2023-02-28T01:48:13.742Z,100.00
2023-02-28T01:49:14.061Z,100.00
2023-02-28T01:50:13.149Z,100.00
2023-02-28T01:51:13.265Z,100.00
2023-02-28T01:52:13.114Z,100.00
2023-02-28T01:53:13.095Z,100.00
2023-02-28T01:54:13.038Z,100.00
2023-02-28T01:55:13.266Z,100.00
2023-02-28T01:56:13.204Z,100.00
2023-02-28T01:57:13.258Z,100.00
2023-02-28T01:58:13.199Z,100.00
2023-02-28T01:59:13.240Z,100.00
2023-02-28T02:00:13.206Z,100.00
2023-02-28T02:01:13.238Z,100.00
2023-02-28T02:02:13.309Z,100.00
2023-02-28T02:03:14.240Z,100.00
2023-02-28T02:04:13.866Z,100.00
2023-02-28T02:05:14.068Z,100.00
2023-02-28T02:06:13.005Z,100.00
2023-02-28T02:07:13.277Z,100.00
2023-02-28T02:08:13.354Z,100.00
2023-02-28T02:09:13.452Z,100.00
2023-02-28T02:10:13.632Z,100.00
2023-02-28T02:11:14.539Z,100.00
2023-02-28T02:12:13.809Z,100.00
2023-02-28T02:13:13.736Z,100.00
2023-02-28T02:14:14.043Z,100.00
2023-02-28T02:15:12.955Z,100.00
2023-02-28T02:16:13.365Z,100.00
2023-02-28T02:17:13.483Z,100.00
2023-02-28T02:18:13.902Z,100.00
2023-02-28T02:19:12.968Z,100.00
2023-02-28T02:20:13.318Z,100.00
2023-02-28T02:21:13.239Z,100.00
2023-02-28T02:22:21.168Z,100.00
2023-02-28T02:23:13.076Z,100.00
2023-02-28T02:24:14.215Z,100.00
2023-02-28T02:25:13.145Z,100.00
2023-02-28T02:26:13.152Z,100.00
2023-02-28T02:27:13.418Z,100.00
2023-02-28T02:28:13.431Z,100.00
2023-02-28T02:29:13.679Z,100.00
2023-02-28T02:30:13.659Z,100.00
2023-02-28T02:31:13.825Z,100.00
2023-02-28T02:32:13.922Z,100.00
2023-02-28T02:33:12.810Z,100.00
2023-02-28T02:34:13.790Z,100.00
2023-02-28T02:35:13.960Z,100.00
2023-02-28T02:36:17.984Z,100.00
2023-02-28T02:37:13.080Z,100.00
2023-02-28T02:38:13.496Z,100.00
2023-02-28T02:39:13.609Z,100.00
2023-02-28T02:40:13.483Z,100.00
2023-02-28T02:41:13.492Z,100.00
2023-02-28T02:42:13.458Z,100.00
2023-02-28T02:43:13.482Z,100.00
2023-02-28T02:44:13.448Z,100.00
2023-02-28T02:45:13.445Z,100.00
2023-02-28T02:46:13.548Z,100.00
2023-02-28T02:47:13.630Z,100.00
2023-02-28T02:48:14.180Z,100.00
2023-02-28T02:49:13.286Z,100.00
2023-02-28T02:50:13.234Z,100.00
2023-02-28T02:51:13.184Z,100.00
2023-02-28T02:52:13.689Z,100.00
2023-02-28T02:53:15.412Z,100.00
2023-02-28T02:54:13.690Z,100.00
2023-02-28T02:55:13.625Z,100.00
2023-02-28T02:56:14.097Z,100.00
2023-02-28T02:57:13.214Z,100.00
2023-02-28T02:58:13.198Z,100.00
2023-02-28T02:59:13.535Z,100.00
2023-02-28T03:00:13.456Z,100.00
2023-02-28T03:01:13.710Z,100.00
2023-02-28T03:02:13.985Z,100.00
2023-02-28T03:03:12.999Z,100.00
2023-02-28T03:04:13.278Z,100.00
2023-02-28T03:05:13.200Z,100.00
2023-02-28T03:06:13.367Z,100.00
2023-02-28T03:07:13.393Z,100.00
2023-02-28T03:08:13.521Z,100.00
2023-02-28T03:09:13.590Z,100.00
2023-02-28T03:10:13.519Z,100.00
2023-02-28T03:11:13.840Z,100.00
2023-02-28T03:12:14.086Z,100.00
2023-02-28T03:13:13.151Z,100.00
2023-02-28T03:14:13.216Z,100.00
2023-02-28T03:15:13.396Z,100.00
2023-02-28T03:16:13.616Z,100.00
2023-02-28T03:17:18.569Z,100.00
2023-02-28T03:18:13.854Z,100.00
2023-02-28T03:19:14.684Z,100.00
2023-02-28T03:20:13.638Z,100.00
2023-02-28T03:21:14.016Z,100.00
2023-02-28T03:22:12.988Z,100.00
2023-02-28T03:23:13.027Z,100.00
2023-02-28T03:24:13.027Z,100.00
2023-02-28T03:25:13.307Z,100.00
2023-02-28T03:26:18.290Z,100.00
2023-02-28T03:27:13.344Z,100.00
2023-02-28T03:28:13.312Z,100.00
2023-02-28T03:29:13.603Z,100.00
2023-02-28T03:30:13.482Z,100.00
2023-02-28T03:31:13.603Z,100.00
2023-02-28T03:32:14.073Z,100.00
2023-02-28T03:33:13.142Z,100.00
2023-02-28T03:34:13.301Z,100.00
2023-02-28T03:35:13.338Z,100.00
2023-02-28T03:36:13.646Z,100.00
2023-02-28T03:37:13.746Z,100.00
2023-02-28T03:38:13.700Z,100.00
2023-02-28T03:39:14.203Z,100.00
2023-02-28T03:40:13.537Z,100.00
2023-02-28T03:41:13.462Z,100.00
2023-02-28T03:42:13.560Z,100.00
2023-02-28T03:43:14.792Z,100.00
2023-02-28T03:44:13.703Z,100.00
2023-02-28T03:45:13.605Z,100.00
2023-02-28T03:46:13.579Z,100.00
2023-02-28T03:47:13.502Z,100.00
2023-02-28T03:48:13.664Z,100.00
2023-02-28T03:49:13.837Z,100.00
2023-02-28T03:50:14.064Z,100.00
2023-02-28T03:51:13.227Z,100.00
2023-02-28T03:52:13.122Z,100.00
2023-02-28T03:53:13.182Z,100.00
2023-02-28T03:54:13.119Z,100.00
2023-02-28T03:55:13.081Z,100.00
2023-02-28T03:56:13.192Z,100.00
2023-02-28T03:57:13.571Z,100.00
2023-02-28T03:58:13.934Z,100.00
2023-02-28T03:59:13.011Z,100.00
2023-02-28T04:00:13.395Z,100.00
2023-02-28T04:01:13.207Z,100.00
2023-02-28T04:02:13.310Z,100.00
2023-02-28T04:03:13.235Z,100.00
2023-02-28T04:04:13.286Z,100.00
2023-02-28T04:05:13.541Z,100.00
2023-02-28T04:06:13.786Z,100.00
2023-02-28T04:07:13.679Z,100.00
2023-02-28T04:08:13.724Z,100.00
2023-02-28T04:09:13.648Z,100.00
2023-02-28T04:10:13.561Z,100.00
2023-02-28T04:11:13.631Z,100.00
2023-02-28T04:13:13.387Z,100.00
2023-02-28T04:14:13.322Z,100.00
2023-02-28T04:15:13.289Z,100.00
2023-02-28T04:16:18.769Z,100.00
2023-02-28T04:17:14.010Z,100.00
2023-02-28T04:18:15.117Z,100.00
2023-02-28T04:19:13.141Z,100.00
2023-02-28T04:20:13.268Z,100.00
2023-02-28T04:21:13.225Z,100.00
2023-02-28T04:22:13.219Z,100.00
2023-02-28T04:23:13.604Z,100.00
2023-02-28T04:24:13.570Z,100.00
2023-02-28T04:25:13.505Z,100.00
2023-02-28T04:26:13.468Z,100.00
2023-02-28T04:27:13.803Z,100.00
2023-02-28T04:28:14.095Z,100.00
2023-02-28T04:29:13.041Z,100.00
2023-02-28T04:30:13.002Z,100.00
2023-02-28T04:31:12.994Z,100.00
2023-02-28T04:32:13.362Z,100.00
2023-02-28T04:33:13.733Z,100.00
2023-02-28T04:34:13.593Z,100.00
2023-02-28T04:35:13.495Z,100.00
2023-02-28T04:36:13.427Z,100.00
2023-02-28T04:37:14.315Z,100.00
2023-02-28T04:38:13.475Z,100.00
2023-02-28T04:39:13.488Z,100.00
2023-02-28T04:40:13.388Z,100.00
2023-02-28T04:41:13.312Z,100.00
2023-02-28T04:42:13.190Z,100.00
2023-02-28T04:43:13.318Z,100.00
2023-02-28T04:44:13.219Z,100.00
2023-02-28T04:45:13.076Z,100.00
2023-02-28T04:46:13.195Z,100.00
2023-02-28T04:47:13.506Z,100.00
2023-02-28T04:48:13.449Z,100.00
2023-02-28T04:49:13.795Z,100.00
2023-02-28T04:50:13.743Z,100.00
2023-02-28T04:51:13.604Z,100.00
2023-02-28T04:52:13.491Z,100.00
2023-02-28T04:53:13.467Z,100.00
2023-02-28T04:54:13.757Z,100.00
2023-02-28T04:55:13.768Z,100.00
2023-02-28T04:56:13.684Z,100.00
2023-02-28T04:57:14.422Z,100.00
2023-02-28T04:58:13.685Z,100.00
2023-02-28T04:59:13.633Z,100.00
2023-02-28T05:00:13.534Z,100.00
2023-02-28T05:01:14.559Z,100.00
2023-02-28T05:02:13.674Z,100.00
2023-02-28T05:03:13.739Z,100.00
2023-02-28T05:04:14.021Z,100.00
2023-02-28T05:05:13.020Z,100.00
2023-02-28T05:06:12.924Z,100.00
2023-02-28T05:07:13.099Z,100.00
2023-02-28T05:08:13.311Z,100.00
2023-02-28T05:09:13.191Z,100.00
2023-02-28T05:10:13.092Z,100.00
2023-02-28T05:11:13.118Z,100.00
2023-02-28T05:12:13.168Z,100.00
2023-02-28T05:13:13.416Z,100.00
2023-02-28T05:14:13.349Z,100.00
2023-02-28T05:15:13.270Z,100.00
2023-02-28T05:16:13.355Z,100.00
2023-02-28T05:17:18.326Z,100.00
2023-02-28T05:18:13.432Z,100.00
2023-02-28T05:19:13.541Z,100.00
2023-02-28T05:20:15.491Z,100.00
2023-02-28T05:21:13.390Z,100.00
2023-02-28T05:22:13.367Z,100.00
2023-02-28T05:23:13.471Z,100.00
2023-02-28T05:24:13.452Z,100.00
2023-02-28T05:25:13.788Z,100.00
2023-02-28T05:26:14.139Z,100.00
2023-02-28T05:27:13.413Z,100.00
2023-02-28T05:28:13.894Z,100.00
2023-02-28T05:29:13.559Z,100.00
2023-02-28T05:30:14.417Z,100.00
2023-02-28T05:31:14.328Z,100.00
2023-02-28T05:32:13.484Z,100.00
2023-02-28T05:33:13.610Z,100.00
2023-02-28T05:34:13.574Z,100.00
2023-02-28T05:35:13.555Z,100.00
2023-02-28T05:36:13.371Z,100.00
2023-02-28T05:37:13.386Z,100.00
2023-02-28T05:38:13.287Z,100.00
2023-02-28T05:39:13.221Z,100.00
2023-02-28T05:40:13.418Z,100.00
2023-02-28T05:41:13.359Z,100.00
2023-02-28T05:42:13.285Z,100.00
2023-02-28T05:43:13.261Z,100.00
2023-02-28T05:44:13.440Z,100.00
2023-02-28T05:45:15.688Z,100.00
2023-02-28T05:46:13.845Z,100.00
2023-02-28T05:47:13.321Z,100.00
2023-02-28T05:48:13.342Z,100.00
2023-02-28T05:49:13.307Z,100.00
2023-02-28T05:50:13.514Z,100.00
2023-02-28T05:51:13.643Z,100.00
2023-02-28T05:52:13.650Z,100.00
2023-02-28T05:53:13.723Z,100.00
2023-02-28T05:55:11.663Z,100.00
2023-02-28T05:55:17.198Z,100.00
2023-02-28T05:56:13.070Z,100.00
2023-02-28T05:58:15.068Z,100.00
2023-02-28T05:59:13.215Z,100.00
2023-02-28T06:00:13.181Z,100.00
2023-02-28T06:01:13.391Z,100.00
2023-02-28T06:02:13.566Z,100.00
2023-02-28T06:03:13.642Z,100.00
2023-02-28T06:04:29.274Z,100.00
2023-02-28T06:05:12.903Z,100.00
2023-02-28T06:06:13.465Z,100.00
2023-02-28T06:07:13.858Z,100.00
2023-02-28T06:08:13.729Z,100.00
2023-02-28T06:09:18.926Z,100.00
2023-02-28T06:10:12.850Z,100.00
2023-02-28T06:11:13.689Z,100.00
2023-02-28T06:12:14.126Z,100.00
2023-02-28T06:13:13.207Z,100.00
2023-02-28T06:14:13.362Z,100.00
2023-02-28T06:15:13.410Z,100.00
2023-02-28T06:16:13.327Z,100.00
2023-02-28T06:17:13.453Z,100.00
2023-02-28T06:18:13.593Z,100.00
2023-02-28T06:19:13.971Z,100.00
2023-02-28T06:20:12.909Z,100.00
2023-02-28T06:21:12.909Z,100.00
2023-02-28T06:22:13.007Z,100.00
2023-02-28T06:23:13.110Z,100.00
2023-02-28T06:24:13.368Z,100.00
2023-02-28T06:25:13.257Z,100.00
2023-02-28T06:26:13.262Z,100.00
2023-02-28T06:27:13.595Z,100.00
2023-02-28T06:28:13.692Z,100.00
2023-02-28T06:29:13.754Z,100.00
2023-02-28T06:30:13.797Z,100.00
2023-02-28T06:31:13.846Z,100.00
2023-02-28T06:32:13.888Z,100.00
2023-02-28T06:33:12.990Z,100.00
2023-02-28T06:34:13.231Z,100.00
2023-02-28T06:35:13.404Z,100.00
2023-02-28T06:36:13.671Z,100.00
2023-02-28T06:37:13.832Z,100.00
2023-02-28T06:38:13.786Z,100.00
2023-02-28T06:39:14.037Z,100.00
2023-02-28T06:40:12.873Z,100.00
2023-02-28T06:41:14.114Z,100.00
2023-02-28T06:42:13.437Z,100.00
2023-02-28T06:43:13.522Z,100.00
2023-02-28T06:44:13.637Z,100.00
2023-02-28T06:45:13.543Z,100.00
2023-02-28T06:46:13.896Z,100.00
2023-02-28T06:47:13.004Z,100.00
2023-02-28T06:48:12.992Z,100.00
2023-02-28T06:49:12.860Z,100.00
2023-02-28T06:50:13.095Z,100.00
2023-02-28T06:51:13.117Z,100.00
2023-02-28T06:52:13.232Z,100.00
2023-02-28T06:53:33.377Z,100.00
2023-02-28T06:54:13.266Z,100.00
2023-02-28T06:55:13.366Z,100.00
2023-02-28T06:56:13.439Z,100.00
2023-02-28T06:57:13.644Z,100.00
2023-02-28T06:58:13.788Z,100.00
2023-02-28T06:59:13.703Z,100.00
2023-02-28T07:00:13.727Z,100.00
2023-02-28T07:01:13.726Z,100.00
2023-02-28T07:02:13.806Z,100.00
2023-02-28T07:03:13.722Z,100.00
2023-02-28T07:04:13.603Z,100.00
2023-02-28T07:05:13.650Z,100.00
2023-02-28T07:06:13.705Z,100.00
2023-02-28T07:07:13.745Z,100.00
2023-02-28T07:08:14.262Z,100.00
2023-02-28T07:09:13.343Z,100.00
2023-02-28T07:10:13.257Z,100.00
2023-02-28T07:11:13.437Z,100.00
2023-02-28T07:12:13.493Z,100.00
2023-02-28T07:13:13.325Z,100.00
2023-02-28T07:14:13.719Z,100.00
2023-02-28T07:15:14.057Z,100.00
2023-02-28T07:16:13.542Z,100.00
2023-02-28T07:17:13.514Z,100.00
2023-02-28T07:18:13.520Z,100.00
2023-02-28T07:19:13.436Z,100.00
2023-02-28T07:20:13.431Z,100.00
2023-02-28T07:21:13.331Z,100.00
2023-02-28T07:22:15.555Z,100.00
2023-02-28T07:23:12.897Z,100.00
2023-02-28T07:24:12.834Z,100.00
2023-02-28T07:25:13.816Z,100.00
2023-02-28T07:26:13.734Z,100.00
2023-02-28T07:27:13.926Z,100.00
2023-02-28T07:28:12.918Z,100.00
2023-02-28T07:29:12.996Z,100.00
2023-02-28T07:30:13.284Z,100.00
2023-02-28T07:31:13.322Z,100.00
2023-02-28T07:32:13.439Z,100.00
2023-02-28T07:33:13.502Z,100.00
2023-02-28T07:34:13.483Z,100.00
2023-02-28T07:35:13.516Z,100.00
2023-02-28T07:36:13.417Z,100.00
2023-02-28T07:37:13.456Z,100.00
2023-02-28T07:38:13.540Z,100.00
2023-02-28T07:39:13.536Z,100.00
2023-02-28T07:40:13.583Z,100.00
2023-02-28T07:41:13.470Z,100.00
2023-02-28T07:42:13.432Z,100.00
2023-02-28T07:43:13.498Z,100.00
2023-02-28T07:44:13.655Z,100.00
2023-02-28T07:45:13.632Z,100.00
2023-02-28T07:46:13.745Z,100.00
2023-02-28T07:47:13.692Z,100.00
2023-02-28T07:48:13.622Z,100.00
2023-02-28T07:49:13.476Z,100.00
2023-02-28T07:50:13.403Z,100.00
2023-02-28T07:51:13.720Z,100.00
2023-02-28T07:52:13.757Z,100.00
2023-02-28T07:53:13.774Z,100.00
2023-02-28T07:54:14.069Z,100.00
2023-02-28T07:55:13.168Z,100.00
2023-02-28T07:56:13.101Z,100.00
2023-02-28T07:57:13.014Z,100.00
2023-02-28T07:58:12.957Z,100.00
2023-02-28T07:59:13.055Z,100.00
2023-02-28T08:00:13.679Z,100.00
2023-02-28T08:01:13.735Z,100.00
2023-02-28T08:02:13.736Z,100.00
2023-02-28T08:03:13.781Z,100.00
2023-02-28T08:04:14.023Z,100.00
2023-02-28T08:05:13.316Z,100.00
2023-02-28T08:06:13.269Z,100.00
2023-02-28T08:07:13.474Z,100.00
2023-02-28T08:08:13.676Z,100.00
2023-02-28T08:09:13.591Z,100.00
2023-02-28T08:10:13.683Z,100.00
2023-02-28T08:11:13.852Z,100.00
2023-02-28T08:12:13.859Z,100.00
2023-02-28T08:13:14.258Z,100.00
2023-02-28T08:14:13.653Z,100.00
2023-02-28T08:15:13.528Z,100.00
2023-02-28T08:16:13.447Z,100.00
2023-02-28T08:17:13.400Z,100.00
2023-02-28T08:18:13.362Z,100.00
2023-02-28T08:19:13.350Z,100.00
2023-02-28T08:20:13.233Z,100.00
2023-02-28T08:21:13.377Z,100.00
2023-02-28T08:22:13.710Z,100.00
2023-02-28T08:23:13.971Z,100.00
2023-02-28T08:24:12.940Z,100.00
2023-02-28T08:25:12.921Z,100.00
2023-02-28T08:26:13.003Z,100.00
2023-02-28T08:27:12.922Z,100.00
2023-02-28T08:28:13.060Z,100.00
2023-02-28T08:29:12.998Z,100.00
2023-02-28T08:30:38.069Z,100.00
2023-02-28T08:31:13.202Z,100.00
2023-02-28T08:33:01.600Z,100.00
2023-02-28T08:33:17.268Z,100.00
2023-02-28T08:34:13.727Z,100.00
2023-02-28T08:35:13.754Z,100.00
2023-02-28T08:36:36.589Z,100.00
2023-02-28T08:37:13.735Z,100.00
2023-02-28T08:38:13.849Z,100.00
2023-02-28T08:39:42.910Z,100.00
2023-02-28T08:40:12.833Z,100.00
2023-02-28T08:41:13.655Z,100.00
2023-02-28T08:42:56.616Z,100.00
2023-02-28T08:43:13.675Z,100.00
2023-02-28T08:44:18.938Z,100.00
2023-02-28T08:45:13.024Z,100.00
2023-02-28T08:46:13.110Z,100.00
2023-02-28T08:47:18.309Z,100.00
2023-02-28T08:48:13.248Z,100.00
2023-02-28T08:49:13.172Z,100.00
2023-02-28T08:50:13.184Z,100.00
2023-02-28T08:51:13.317Z,100.00
2023-02-28T08:52:13.287Z,100.00
2023-02-28T08:53:13.462Z,100.00
2023-02-28T08:54:13.633Z,100.00
2023-02-28T08:55:13.555Z,100.00
2023-02-28T08:56:13.615Z,100.00
2023-02-28T08:57:13.766Z,100.00
2023-02-28T08:58:13.860Z,100.00
2023-02-28T08:59:13.743Z,100.00
2023-02-28T09:00:13.613Z,100.00
2023-02-28T09:01:13.898Z,99.30
2023-02-28T09:02:13.180Z,97.70
2023-02-28T09:03:13.397Z,96.80
2023-02-28T09:04:14.598Z,97.70
2023-02-28T09:05:13.687Z,98.40
2023-02-28T09:06:13.699Z,88.10
2023-02-28T09:07:13.951Z,90.70
2023-02-28T09:08:13.228Z,85.30
2023-02-28T09:09:13.252Z,86.90
2023-02-28T09:10:13.369Z,86.80
2023-02-28T09:11:13.356Z,83.60
2023-02-28T09:12:13.283Z,83.30
2023-02-28T09:13:13.196Z,81.30
2023-02-28T09:14:13.126Z,83.60
2023-02-28T09:15:13.138Z,76.20
2023-02-28T09:16:13.114Z,77.60
2023-02-28T09:17:13.667Z,75.50
2023-02-28T09:18:13.674Z,75.90
2023-02-28T09:19:13.730Z,77.90
2023-02-28T09:20:14.107Z,74.40
2023-02-28T09:21:13.646Z,74.50
2023-02-28T09:22:13.666Z,74.80
2023-02-28T09:23:13.721Z,73.40
2023-02-28T09:24:14.076Z,70.90
2023-02-28T09:25:13.695Z,71.50
2023-02-28T09:26:13.698Z,73.90
2023-02-28T09:27:13.652Z,71.30
2023-02-28T09:28:13.730Z,71.60
2023-02-28T09:29:14.069Z,69.50
2023-02-28T09:30:13.167Z,69.10
2023-02-28T09:31:13.549Z,70.40
2023-02-28T09:32:13.643Z,71.00
2023-02-28T09:33:13.635Z,71.00
2023-02-28T09:34:13.777Z,70.50
2023-02-28T09:35:13.722Z,68.10
2023-02-28T09:36:14.154Z,67.90
2023-02-28T09:37:13.038Z,68.10
2023-02-28T09:38:13.099Z,68.40
2023-02-28T09:39:13.381Z,67.20
2023-02-28T09:40:13.665Z,67.00
2023-02-28T09:41:13.604Z,68.10
2023-02-28T09:42:13.691Z,68.10
2023-02-28T09:43:14.169Z,67.50
2023-02-28T09:44:13.171Z,66.30
2023-02-28T09:45:13.209Z,68.70
2023-02-28T09:46:13.211Z,67.70
2023-02-28T09:47:13.283Z,66.70
2023-02-28T09:48:26.980Z,65.80
2023-02-28T09:49:13.159Z,65.60
2023-02-28T09:50:13.109Z,65.30
2023-02-28T09:51:13.053Z,65.40
2023-02-28T09:52:13.017Z,66.00
2023-02-28T09:53:12.951Z,64.10
2023-02-28T09:54:12.907Z,61.10
2023-02-28T09:55:12.891Z,62.20
2023-02-28T09:56:12.966Z,62.30
2023-02-28T09:57:13.053Z,62.80
2023-02-28T09:58:12.972Z,61.00
2023-02-28T09:59:13.076Z,60.70
2023-02-28T10:00:13.121Z,62.30
2023-02-28T10:01:13.087Z,61.80
2023-02-28T10:02:13.124Z,62.00
2023-02-28T10:03:13.018Z,61.00
2023-02-28T10:04:13.581Z,60.70
2023-02-28T10:05:13.550Z,61.00
2023-02-28T10:06:13.444Z,60.10
2023-02-28T10:07:13.400Z,61.20
2023-02-28T10:08:13.321Z,61.40
2023-02-28T10:09:18.571Z,59.80
2023-02-28T10:10:13.584Z,59.60
2023-02-28T10:11:14.064Z,59.70
2023-02-28T10:12:13.119Z,60.40
2023-02-28T10:13:13.167Z,57.90
2023-02-28T10:14:13.505Z,56.60
2023-02-28T10:15:13.765Z,52.20
2023-02-28T10:16:13.939Z,51.50
2023-02-28T10:17:18.293Z,52.00
2023-02-28T10:18:13.874Z,49.70
2023-02-28T10:19:12.940Z,48.00
2023-02-28T10:20:12.912Z,49.70
2023-02-28T10:21:12.805Z,49.10
2023-02-28T10:22:13.708Z,48.90
2023-02-28T10:23:13.624Z,48.40
2023-02-28T10:24:13.785Z,45.90
2023-02-28T10:25:13.819Z,46.50
2023-02-28T10:26:13.808Z,46.80
2023-02-28T10:27:14.125Z,45.50
2023-02-28T10:28:12.982Z,43.80
2023-02-28T10:29:12.970Z,43.60
2023-02-28T10:30:12.868Z,43.60
2023-02-28T10:31:13.909Z,43.20
2023-02-28T10:32:13.027Z,43.90
2023-02-28T10:33:13.154Z,42.80
2023-02-28T10:34:13.104Z,43.20
2023-02-28T10:35:13.214Z,45.20
2023-02-28T10:36:13.463Z,43.30
2023-02-28T10:37:13.453Z,42.40
2023-02-28T10:38:13.569Z,41.00
2023-02-28T10:39:13.497Z,40.70
2023-02-28T10:40:13.344Z,39.80
2023-02-28T10:41:13.412Z,38.20
2023-02-28T10:42:13.432Z,38.30
2023-02-28T10:43:13.710Z,38.00
2023-02-28T10:44:13.782Z,39.40
2023-02-28T10:45:13.923Z,41.10
2023-02-28T10:46:13.235Z,41.50
2023-02-28T10:47:48.577Z,41.50
2023-02-28T10:48:13.671Z,41.30
2023-02-28T10:49:18.873Z,40.90
2023-02-28T10:50:13.001Z,40.20
2023-02-28T10:51:13.237Z,42.30
2023-02-28T10:52:13.513Z,40.80
2023-02-28T10:53:13.616Z,39.50
2023-02-28T10:54:13.933Z,41.50
2023-02-28T10:55:13.180Z,42.00
2023-02-28T10:56:13.504Z,41.90
2023-02-28T10:57:13.415Z,40.80
2023-02-28T10:58:13.629Z,41.20
2023-02-28T10:59:13.564Z,41.40
2023-02-28T11:00:13.748Z,40.10
2023-02-28T11:01:13.629Z,41.10
2023-02-28T11:02:13.546Z,42.60
2023-02-28T11:03:13.924Z,42.70
2023-02-28T11:04:13.187Z,41.60
2023-02-28T11:05:13.375Z,43.40
2023-02-28T11:06:13.578Z,41.30
2023-02-28T11:07:13.453Z,40.60
2023-02-28T11:08:13.520Z,40.90
2023-02-28T11:09:13.865Z,41.90
2023-02-28T11:10:13.862Z,42.50
2023-02-28T11:11:12.834Z,41.40
2023-02-28T11:12:13.909Z,40.50
2023-02-28T11:14:20.646Z,39.90
2023-02-28T11:15:40.723Z,41.20
2023-02-28T11:16:14.200Z,41.30
2023-02-28T11:17:13.273Z,42.70
2023-02-28T11:18:13.220Z,43.80
2023-02-28T11:19:13.633Z,44.30
2023-02-28T11:20:13.880Z,44.20
2023-02-28T11:21:13.306Z,42.70
2023-02-28T11:22:13.821Z,43.20
2023-02-28T11:23:14.116Z,41.30
2023-02-28T11:24:13.353Z,40.50
2023-02-28T11:25:13.483Z,39.80
2023-02-28T11:26:13.746Z,41.20
2023-02-28T11:27:13.986Z,42.00
2023-02-28T11:28:13.327Z,43.10
2023-02-28T11:29:13.391Z,40.50
2023-02-28T11:30:13.643Z,41.50
2023-02-28T11:31:14.121Z,43.10
2023-02-28T11:32:13.643Z,42.30
2023-02-28T11:33:14.097Z,43.10
2023-02-28T11:34:13.115Z,44.00
2023-02-28T11:35:13.475Z,43.90
2023-02-28T11:36:13.468Z,41.70
2023-02-28T11:37:13.461Z,40.40
2023-02-28T11:38:13.387Z,41.00
2023-02-28T11:39:13.439Z,40.20
2023-02-28T11:40:13.587Z,41.10
2023-02-28T11:41:13.877Z,42.40
2023-02-28T11:42:13.818Z,41.40
2023-02-28T11:43:13.992Z,41.90
2023-02-28T11:44:13.057Z,41.50
2023-02-28T11:45:13.016Z,41.90
2023-02-28T11:46:18.387Z,43.00
2023-02-28T11:47:13.574Z,43.40
2023-02-28T11:48:13.705Z,42.50
2023-02-28T11:49:13.735Z,41.90
2023-02-28T11:50:13.785Z,40.10
2023-02-28T11:51:13.993Z,39.60
2023-02-28T11:52:13.146Z,39.20
2023-02-28T11:53:13.001Z,40.60
2023-02-28T11:54:13.191Z,40.80
2023-02-28T11:55:13.215Z,40.80
2023-02-28T11:56:13.197Z,41.50
2023-02-28T11:57:13.380Z,39.60
2023-02-28T11:58:13.668Z,42.10
2023-02-28T11:59:13.901Z,40.60
2023-02-28T12:00:12.877Z,40.30
2023-02-28T12:01:14.007Z,42.70
2023-02-28T12:02:13.229Z,43.30
2023-02-28T12:03:13.234Z,41.90
2023-02-28T12:04:13.222Z,43.80
2023-02-28T12:05:13.339Z,45.00
2023-02-28T12:06:13.460Z,45.30
2023-02-28T12:07:13.559Z,44.10
2023-02-28T12:08:13.787Z,43.40
2023-02-28T12:09:13.797Z,43.00
2023-02-28T12:10:14.085Z,41.30
2023-02-28T12:11:13.334Z,40.80
2023-02-28T12:12:13.249Z,40.80
2023-02-28T12:13:13.202Z,41.10
2023-02-28T12:14:13.188Z,41.70
2023-02-28T12:15:13.147Z,40.30
2023-02-28T12:16:13.144Z,41.00
2023-02-28T12:17:13.411Z,40.40
2023-02-28T12:18:13.289Z,42.90
2023-02-28T12:19:13.251Z,42.40
2023-02-28T12:20:13.267Z,42.00
2023-02-28T12:21:13.694Z,39.90
2023-02-28T12:22:13.702Z,42.70
2023-02-28T12:23:13.636Z,42.00
2023-02-28T12:24:13.833Z,42.50
2023-02-28T12:25:13.912Z,42.10
2023-02-28T12:26:12.870Z,41.40
2023-02-28T12:27:16.813Z,41.90
2023-02-28T12:28:13.784Z,39.60
2023-02-28T12:29:13.992Z,37.70
2023-02-28T12:30:12.899Z,39.50
2023-02-28T12:31:13.248Z,40.30
2023-02-28T12:32:13.313Z,39.10
2023-02-28T12:33:13.442Z,37.60
2023-02-28T12:34:13.924Z,38.40
2023-02-28T12:35:13.106Z,39.50
2023-02-28T12:36:13.072Z,39.40
2023-02-28T12:37:13.396Z,40.30
2023-02-28T12:38:13.342Z,40.90